Time;durP1;ratioP1;P1;durP2;ratioP2;P2;SDS_P1;SDS_P2;PMS_P1;PMS_P2;Temp;Humidity;BMP_temperature;BMP_pressure;BME280_temperature;BME280_humidity;BME280_pressure;Samples;Min_cycle;Max_cycle;Signal;HPM_P1;HPM_P2
2022/12/16 00:01:24;;;;;;;8.40;2.40;;;19.60;43.50;;;;;;5043901;28;20179;-69
2022/12/16 00:03:55;;;;;;;5.77;1.70;;;19.80;43.80;;;;;;5049603;28;20180;-67
2022/12/16 00:06:24;;;;;;;5.53;1.70;;;20.20;43.80;;;;;;5044670;28;20187;-69
2022/12/16 00:08:52;;;;;;;3.00;1.30;;;20.20;43.40;;;;;;5049579;28;20800;-66
2022/12/16 00:11:20;;;;;;;7.10;1.80;;;20.30;43.50;;;;;;5047835;28;20176;-67
2022/12/16 00:13:47;;;;;;;11.13;1.87;;;20.20;42.90;;;;;;5049914;28;20220;-65
2022/12/16 00:16:16;;;;;;;5.87;1.63;;;20.30;42.40;;;;;;5048748;28;20176;-69
2022/12/16 00:18:45;;;;;;;8.67;1.90;;;20.30;42.10;;;;;;5046855;28;20222;-66
2022/12/16 00:21:13;;;;;;;5.43;1.97;;;20.30;43.20;;;;;;5047620;28;20250;-66
2022/12/16 00:23:40;;;;;;;7.00;1.60;;;20.40;44.00;;;;;;5047800;28;20270;-71
2022/12/16 00:26:09;;;;;;;10.30;2.03;;;20.40;42.40;;;;;;5049965;28;20214;-70
2022/12/16 00:28:37;;;;;;;5.57;1.77;;;20.10;43.20;;;;;;5045634;28;20599;-67
2022/12/16 00:31:04;;;;;;;6.40;1.70;;;20.20;43.90;;;;;;5042783;28;20211;-66
2022/12/16 00:33:32;;;;;;;11.03;2.00;;;20.30;42.70;;;;;;5044165;28;20219;-68
2022/12/16 00:36:00;;;;;;;7.73;2.40;;;20.60;43.20;;;;;;5050658;28;20179;-69
2022/12/16 00:38:27;;;;;;;4.40;1.80;;;20.80;43.20;;;;;;5048613;28;20192;-67
2022/12/16 00:40:55;;;;;;;7.30;2.53;;;21.10;42.10;;;;;;5048535;28;20222;-68
2022/12/16 00:43:22;;;;;;;4.33;1.67;;;21.00;42.30;;;;;;5055809;28;20187;-69
2022/12/16 00:45:50;;;;;;;3.80;2.13;;;21.30;42.30;;;;;;5048058;28;20215;-72
2022/12/16 00:48:17;;;;;;;7.50;1.77;;;21.10;42.40;;;;;;5051414;28;20235;-70
2022/12/16 00:50:51;;;;;;;7.30;2.00;;;20.80;42.80;;;;;;5051648;28;20183;-67
2022/12/16 00:53:19;;;;;;;5.80;1.40;;;20.80;43.00;;;;;;5051578;28;20212;-68
2022/12/16 00:55:47;;;;;;;3.57;1.80;;;20.60;43.40;;;;;;5056047;28;20202;-66
2022/12/16 00:58:15;;;;;;;5.73;1.80;;;20.50;43.90;;;;;;5051844;28;20198;-70
2022/12/16 01:00:43;;;;;;;8.70;1.80;;;20.80;44.30;;;;;;5051224;28;20552;-66
2022/12/16 01:03:11;;;;;;;7.63;1.40;;;20.80;44.60;;;;;;5045784;28;20207;-68
2022/12/16 01:05:39;;;;;;;5.10;1.73;;;20.80;45.40;;;;;;5050992;28;20658;-67
2022/12/16 01:08:07;;;;;;;5.40;1.80;;;20.50;45.80;;;;;;5047326;28;20216;-69
2022/12/16 01:10:35;;;;;;;5.23;1.70;;;20.30;46.70;;;;;;5050116;28;20257;-68
2022/12/16 01:13:02;;;;;;;3.73;1.53;;;20.20;46.20;;;;;;5051337;28;20690;-67
2022/12/16 01:15:30;;;;;;;9.67;1.67;;;19.90;45.90;;;;;;5047914;28;20188;-66
2022/12/16 01:17:57;;;;;;;4.13;1.30;;;19.60;45.30;;;;;;5050762;28;20261;-66
2022/12/16 01:20:24;;;;;;;4.83;1.87;;;19.80;45.40;;;;;;5041441;28;20647;-66
2022/12/16 01:22:52;;;;;;;6.47;1.80;;;19.80;46.10;;;;;;5050390;28;20172;-68
2022/12/16 01:25:19;;;;;;;6.47;1.47;;;19.70;45.80;;;;;;5048986;28;20575;-66
2022/12/16 01:27:46;;;;;;;5.97;1.73;;;19.80;45.30;;;;;;5041545;28;20687;-67
2022/12/16 01:30:14;;;;;;;7.10;2.10;;;20.00;45.20;;;;;;5052779;28;20212;-67
2022/12/16 01:32:41;;;;;;;6.93;1.70;;;20.30;44.60;;;;;;5055045;28;20242;-66
2022/12/16 01:35:09;;;;;;;6.80;1.70;;;20.30;44.60;;;;;;5048079;28;20168;-66
2022/12/16 01:37:36;;;;;;;6.87;1.80;;;20.30;44.50;;;;;;5052012;28;20234;-69
2022/12/16 01:40:04;;;;;;;9.30;1.93;;;20.30;44.20;;;;;;5050317;28;20187;-67
2022/12/16 01:42:32;;;;;;;8.27;1.80;;;20.50;45.00;;;;;;5054866;28;20192;-65
2022/12/16 01:45:37;;;;;;;6.47;1.63;;;20.20;44.60;;;;;;5053732;28;20188;-66
2022/12/16 01:48:45;;;;;;;6.83;1.73;;;20.00;45.30;;;;;;5051242;28;20697;-69
2022/12/16 01:51:47;;;;;;;7.27;1.80;;;20.10;45.30;;;;;;5049159;28;20183;-68
2022/12/16 01:54:25;;;;;;;8.77;1.80;;;20.30;44.70;;;;;;5039924;28;20203;-67
2022/12/16 01:57:03;;;;;;;2.90;1.27;;;20.10;43.30;;;;;;5059024;28;20194;-65
2022/12/16 01:59:33;;;;;;;9.00;1.70;;;20.40;43.30;;;;;;5052376;28;20251;-65
2022/12/16 02:02:01;;;;;;;4.37;1.87;;;20.60;44.10;;;;;;5052850;28;20187;-66
2022/12/16 02:04:28;;;;;;;10.93;2.40;;;20.70;44.20;;;;;;5052854;28;20233;-67
2022/12/16 02:06:58;;;;;;;10.13;2.00;;;20.80;44.40;;;;;;5048159;28;20188;-66
2022/12/16 02:09:25;;;;;;;11.97;1.50;;;20.40;44.90;;;;;;5045081;28;20256;-69
2022/12/16 02:12:14;;;;;;;7.43;1.90;;;20.20;46.20;;;;;;5054095;28;20580;-66
2022/12/16 02:14:53;;;;;;;8.23;2.00;;;20.30;46.40;;;;;;5053358;28;20566;-67
2022/12/16 02:17:32;;;;;;;7.77;2.30;;;20.40;45.20;;;;;;5053522;28;20590;-68
2022/12/16 02:20:17;;;;;;;9.73;2.00;;;20.60;44.90;;;;;;5053019;28;20593;-67
2022/12/16 02:23:17;;;;;;;5.77;1.60;;;21.20;44.00;;;;;;5052478;28;20184;-64
2022/12/16 02:26:25;;;;;;;4.93;1.57;;;21.80;43.00;;;;;;5051992;28;20586;-65
2022/12/16 02:29:07;;;;;;;6.07;1.67;;;21.80;42.30;;;;;;5015877;28;20193;-66
2022/12/16 02:32:02;;;;;;;8.23;2.00;;;21.90;42.30;;;;;;5043873;28;20199;-66
2022/12/16 02:34:51;;;;;;;9.30;1.87;;;21.90;43.20;;;;;;5049980;28;20176;-66
2022/12/16 02:37:37;;;;;;;6.70;1.90;;;22.00;43.30;;;;;;5050685;28;20270;-68
2022/12/16 02:40:25;;;;;;;6.00;2.00;;;22.60;42.50;;;;;;5052408;28;20176;-67
2022/12/16 02:43:31;;;;;;;7.33;1.90;;;22.30;41.60;;;;;;5052016;28;20596;-66
2022/12/16 02:45:59;;;;;;;5.70;1.90;;;22.30;41.90;;;;;;5048504;28;20180;-66
2022/12/16 02:48:26;;;;;;;9.07;2.37;;;22.80;41.70;;;;;;5045593;28;20733;-68
2022/12/16 02:50:54;;;;;;;9.67;1.97;;;22.40;41.40;;;;;;5053470;28;20172;-66
2022/12/16 02:53:21;;;;;;;7.27;1.70;;;22.80;40.80;;;;;;5046287;28;20223;-66
2022/12/16 02:56:24;;;;;;;9.03;2.03;;;22.80;40.80;;;;;;5045424;28;20184;-68
2022/12/16 02:59:13;;;;;;;12.40;2.53;;;22.70;40.90;;;;;;5031952;28;20200;-67
2022/12/16 03:01:54;;;;;;;7.10;1.97;;;22.90;41.90;;;;;;5051924;28;20184;-67
2022/12/16 03:04:42;;;;;;;4.83;1.47;;;22.90;41.30;;;;;;5052412;28;20184;-67
2022/12/16 03:07:13;;;;;;;5.03;1.63;;;22.80;41.80;;;;;;5053178;28;20809;-66
2022/12/16 03:09:43;;;;;;;11.73;2.47;;;22.80;41.80;;;;;;5053420;28;20179;-68
2022/12/16 03:12:14;;;;;;;9.60;1.90;;;23.00;42.20;;;;;;5053137;28;20266;-67
2022/12/16 03:14:45;;;;;;;15.57;2.17;;;22.80;42.10;;;;;;5050582;28;20220;-67
2022/12/16 03:17:15;;;;;;;7.70;2.03;;;22.70;43.00;;;;;;5050896;28;20195;-68
2022/12/16 03:19:49;;;;;;;5.87;1.83;;;22.80;42.50;;;;;;5078979;28;20193;-68
2022/12/16 03:22:24;;;;;;;7.73;2.00;;;23.10;41.30;;;;;;5053072;28;20168;-67
2022/12/16 03:24:52;;;;;;;7.77;1.90;;;23.00;41.60;;;;;;5052635;28;20180;-67
2022/12/16 03:27:28;;;;;;;7.13;2.00;;;23.40;41.60;;;;;;5052701;28;20172;-66
2022/12/16 03:30:17;;;;;;;10.63;2.57;;;23.30;42.50;;;;;;5049253;28;20278;-67
2022/12/16 03:33:02;;;;;;;6.93;2.17;;;23.50;40.80;;;;;;5052348;28;20219;-67
2022/12/16 03:35:54;;;;;;;7.17;2.00;;;23.80;40.90;;;;;;5052604;28;20265;-66
2022/12/16 03:38:23;;;;;;;8.30;2.03;;;23.70;41.00;;;;;;5050106;28;20194;-66
2022/12/16 03:40:52;;;;;;;10.40;2.33;;;23.10;42.20;;;;;;5052528;28;20176;-67
2022/12/16 03:43:20;;;;;;;11.27;2.50;;;22.90;42.70;;;;;;5052025;28;20206;-66
2022/12/16 03:45:54;;;;;;;6.40;1.70;;;23.40;41.70;;;;;;5052507;28;20298;-67
2022/12/16 03:48:26;;;;;;;6.77;1.97;;;23.10;41.60;;;;;;5043968;28;20219;-64
2022/12/16 03:50:54;;;;;;;8.13;2.43;;;23.40;41.90;;;;;;5052191;28;20273;-66
2022/12/16 03:53:25;;;;;;;8.83;2.17;;;23.70;42.20;;;;;;5044086;28;20247;-66
2022/12/16 03:55:53;;;;;;;7.37;1.80;;;24.10;40.60;;;;;;5048456;28;20275;-66
2022/12/16 03:58:21;;;;;;;9.27;2.20;;;23.40;40.50;;;;;;5042721;28;20192;-67
2022/12/16 04:00:49;;;;;;;8.27;2.03;;;23.70;39.80;;;;;;5051817;28;20187;-66
2022/12/16 04:03:16;;;;;;;6.60;1.80;;;23.90;39.90;;;;;;5051791;28;20234;-66
2022/12/16 04:05:45;;;;;;;9.53;1.93;;;23.80;40.10;;;;;;5053564;28;20267;-66
2022/12/16 04:08:13;;;;;;;7.97;1.77;;;23.80;39.80;;;;;;5048032;28;20233;-67
2022/12/16 04:25:06;;;;;;;11.13;2.10;;;24.70;39.10;;;;;;5007639;28;20526;-67
2022/12/16 04:27:33;;;;;;;9.10;1.93;;;24.10;38.80;;;;;;5038745;28;20201;-67
2022/12/16 04:30:19;;;;;;;9.93;2.47;;;24.30;38.90;;;;;;5063110;28;20249;-69
